createdAt,value
2022-08-20T00:01:35.943Z,99.33
2022-08-20T00:03:44.792Z,99.93
2022-08-20T00:05:57.652Z,99.22
2022-08-20T00:08:01.272Z,99.45
2022-08-20T00:10:06.922Z,98.92
2022-08-20T00:12:13.685Z,98.68
2022-08-20T00:14:16.754Z,100.00
2022-08-20T00:16:21.588Z,100.00
2022-08-20T00:18:25.121Z,99.92
2022-08-20T00:20:30.379Z,100.00
2022-08-20T00:22:33.352Z,100.00
2022-08-20T00:24:36.412Z,100.00
2022-08-20T00:26:52.368Z,98.71
2022-08-20T00:28:57.221Z,100.00
2022-08-20T00:31:00.803Z,98.84
2022-08-20T00:33:11.055Z,98.78
2022-08-20T00:35:15.756Z,99.08
2022-08-20T00:37:18.904Z,98.75
2022-08-20T00:39:21.981Z,99.54
2022-08-20T00:41:27.508Z,99.46
2022-08-20T00:43:35.118Z,98.65
2022-08-20T00:45:39.524Z,97.93
2022-08-20T00:47:51.058Z,97.17
2022-08-20T00:49:54.347Z,98.61
2022-08-20T00:51:59.847Z,98.93
2022-08-20T00:54:06.515Z,98.78
2022-08-20T00:56:11.410Z,99.01
2022-08-20T00:58:15.075Z,98.76
2022-08-20T01:00:22.073Z,99.46
2022-08-20T01:02:28.592Z,99.54
2022-08-20T01:04:34.621Z,99.46
2022-08-20T01:06:37.855Z,99.38
2022-08-20T01:08:42.568Z,98.74
2022-08-20T01:10:48.200Z,98.19
2022-08-20T01:12:55.580Z,98.84
2022-08-20T01:15:03.837Z,98.52
2022-08-20T01:17:09.212Z,98.61
2022-08-20T01:19:29.432Z,98.10
2022-08-20T01:21:34.281Z,98.86
2022-08-20T01:23:43.191Z,97.56
2022-08-20T01:25:50.195Z,99.34
2022-08-20T01:27:55.440Z,99.40
2022-08-20T01:29:59.274Z,98.30
2022-08-20T01:32:02.719Z,98.96
2022-08-20T01:34:08.387Z,98.39
2022-08-20T01:36:12.732Z,99.17
2022-08-20T01:38:16.012Z,99.01
2022-08-20T01:40:28.938Z,97.21
2022-08-20T01:42:58.915Z,98.64
2022-08-20T01:45:04.390Z,96.86
2022-08-20T01:47:15.931Z,97.25
2022-08-20T01:49:23.328Z,98.36
2022-08-20T01:51:28.730Z,97.61
2022-08-20T01:53:34.111Z,96.95
2022-08-20T01:55:38.316Z,98.68
2022-08-20T01:57:43.082Z,96.85
2022-08-20T01:59:46.577Z,98.07
2022-08-20T02:01:50.178Z,98.28
2022-08-20T02:03:54.162Z,98.57
2022-08-20T02:05:57.920Z,98.49
2022-08-20T02:08:01.122Z,98.48
2022-08-20T02:10:06.607Z,99.19
2022-08-20T02:12:11.073Z,97.98
2022-08-20T02:14:15.670Z,99.29
2022-08-20T02:16:18.986Z,97.67
2022-08-20T02:18:22.003Z,98.61
2022-08-20T02:20:29.247Z,97.48
2022-08-20T02:22:37.911Z,99.07
2022-08-20T02:24:41.515Z,98.70
2022-08-20T02:26:45.021Z,98.05
2022-08-20T02:28:49.464Z,98.90
2022-08-20T02:30:55.337Z,99.93
2022-08-20T02:32:58.939Z,99.35
2022-08-20T02:35:03.216Z,97.96
2022-08-20T02:37:07.530Z,97.65
2022-08-20T02:39:12.873Z,98.55
2022-08-20T02:41:16.403Z,97.71
2022-08-20T02:43:20.061Z,98.45
2022-08-20T02:45:23.738Z,97.90
2022-08-20T02:47:28.751Z,98.79
2022-08-20T02:49:31.805Z,98.92
2022-08-20T02:51:34.770Z,98.52
2022-08-20T02:53:39.612Z,98.26
2022-08-20T02:55:42.611Z,97.69
2022-08-20T02:57:45.965Z,98.23
2022-08-20T02:59:53.778Z,97.99
2022-08-20T03:02:00.440Z,98.71
2022-08-20T03:04:05.835Z,98.03
2022-08-20T03:06:10.199Z,98.13
2022-08-20T03:08:14.599Z,98.21
2022-08-20T03:10:18.456Z,99.26
2022-08-20T03:12:21.420Z,99.10
2022-08-20T03:14:24.677Z,99.18
2022-08-20T03:16:27.638Z,98.95
2022-08-20T03:18:36.073Z,98.06
2022-08-20T03:20:41.055Z,97.92
2022-08-20T03:22:44.081Z,98.38
2022-08-20T03:24:47.081Z,97.85
2022-08-20T03:26:50.186Z,98.11
2022-08-20T03:28:53.208Z,99.33
2022-08-20T03:30:57.903Z,98.19
2022-08-20T03:33:01.022Z,98.45
2022-08-20T03:35:04.743Z,98.36
2022-08-20T03:37:11.574Z,98.89
2022-08-20T03:39:15.431Z,99.42
2022-08-20T03:41:19.005Z,98.53
2022-08-20T03:43:22.156Z,98.93
2022-08-20T03:45:26.228Z,98.50
2022-08-20T03:47:29.374Z,98.12
2022-08-20T03:49:32.412Z,99.07
2022-08-20T03:51:56.373Z,98.96
2022-08-20T03:54:00.429Z,99.50
2022-08-20T03:56:06.163Z,98.73
2022-08-20T03:58:10.621Z,99.22
2022-08-20T04:00:15.646Z,100.00
2022-08-20T04:02:18.801Z,98.86
2022-08-20T04:04:22.257Z,99.18
2022-08-20T04:06:25.512Z,98.68
2022-08-20T04:08:30.396Z,98.83
2022-08-20T04:10:35.161Z,99.63
2022-08-20T04:12:40.718Z,98.69
2022-08-20T04:14:51.743Z,99.53
2022-08-20T04:16:54.800Z,98.28
2022-08-20T04:19:02.218Z,98.86
2022-08-20T04:21:06.446Z,98.74
2022-08-20T04:23:10.217Z,99.61
2022-08-20T04:25:16.066Z,98.54
2022-08-20T04:27:21.225Z,98.06
2022-08-20T04:29:25.908Z,98.32
2022-08-20T04:31:35.448Z,98.82
2022-08-20T04:33:38.660Z,98.23
2022-08-20T04:35:41.752Z,98.19
2022-08-20T04:37:46.124Z,98.48
2022-08-20T04:40:09.994Z,98.03
2022-08-20T04:42:12.290Z,98.90
2022-08-20T04:44:16.696Z,98.62
2022-08-20T04:46:19.708Z,98.75
2022-08-20T04:48:24.443Z,98.13
2022-08-20T04:50:27.560Z,98.53
2022-08-20T04:52:32.869Z,98.61
2022-08-20T04:54:35.842Z,98.19
2022-08-20T04:56:39.621Z,99.36
2022-08-20T04:58:47.665Z,98.73
2022-08-20T05:00:54.191Z,99.07
2022-08-20T05:02:57.299Z,98.70
2022-08-20T05:05:00.252Z,99.92
2022-08-20T05:07:03.269Z,99.54
2022-08-20T05:09:06.251Z,99.19
2022-08-20T05:11:34.365Z,98.48
2022-08-20T05:13:33.369Z,99.28
2022-08-20T05:15:37.008Z,99.64
2022-08-20T05:17:42.552Z,99.38
2022-08-20T05:19:46.578Z,99.72
2022-08-20T05:21:53.605Z,98.98
2022-08-20T05:23:56.637Z,98.16
2022-08-20T05:25:59.669Z,98.77
2022-08-20T05:28:12.511Z,98.90
2022-08-20T05:30:15.711Z,100.00
2022-08-20T05:32:18.712Z,99.55
2022-08-20T05:34:23.779Z,99.60
2022-08-20T05:36:26.969Z,98.42
2022-08-20T05:38:31.002Z,98.47
2022-08-20T05:40:34.485Z,98.75
2022-08-20T05:42:37.648Z,99.93
2022-08-20T05:44:42.057Z,99.04
2022-08-20T05:46:47.693Z,98.73
2022-08-20T05:48:50.671Z,100.00
2022-08-20T05:50:55.804Z,98.78
2022-08-20T05:52:58.897Z,99.52
2022-08-20T05:55:01.977Z,98.60
2022-08-20T05:57:05.464Z,98.15
2022-08-20T05:59:10.053Z,98.25
2022-08-20T06:01:13.102Z,98.23
2022-08-20T06:03:34.147Z,99.27
2022-08-20T06:05:37.192Z,99.36
2022-08-20T06:07:41.603Z,99.65
2022-08-20T06:09:44.624Z,99.73
2022-08-20T06:11:47.668Z,99.90
2022-08-20T06:13:50.648Z,99.52
2022-08-20T06:15:53.597Z,98.50
2022-08-20T06:17:58.499Z,99.97
2022-08-20T06:20:03.852Z,99.09
2022-08-20T06:22:19.689Z,100.00
2022-08-20T06:24:29.491Z,100.00
2022-08-20T06:26:34.412Z,98.71
2022-08-20T06:28:37.455Z,99.20
2022-08-20T06:30:40.717Z,99.99
2022-08-20T06:32:43.704Z,98.98
2022-08-20T06:34:49.787Z,99.63
2022-08-20T06:36:53.694Z,98.49
2022-08-20T06:38:58.365Z,100.00
2022-08-20T06:41:02.987Z,99.67
2022-08-20T06:43:09.823Z,100.00
2022-08-20T06:45:13.748Z,99.58
2022-08-20T06:47:18.457Z,99.92
2022-08-20T06:49:21.499Z,100.00
2022-08-20T06:51:24.513Z,100.00
2022-08-20T06:53:27.503Z,100.00
2022-08-20T06:55:30.600Z,100.00
2022-08-20T06:57:35.210Z,100.00
2022-08-20T06:59:38.208Z,100.00
2022-08-20T07:01:41.349Z,100.00
2022-08-20T07:03:54.490Z,100.00
2022-08-20T07:05:59.482Z,100.00
2022-08-20T07:08:02.604Z,100.00
2022-08-20T07:10:07.660Z,100.00
2022-08-20T07:12:10.898Z,100.00
2022-08-20T07:14:15.583Z,100.00
2022-08-20T07:16:18.597Z,100.00
2022-08-20T07:18:28.644Z,100.00
2022-08-20T07:20:33.331Z,100.00
2022-08-20T07:22:37.026Z,100.00
2022-08-20T07:24:41.543Z,100.00
2022-08-20T07:26:45.600Z,100.00
2022-08-20T07:28:48.713Z,100.00
2022-08-20T07:31:13.611Z,100.00
2022-08-20T07:33:17.622Z,100.00
2022-08-20T07:35:21.725Z,100.00
2022-08-20T07:37:24.973Z,100.00
2022-08-20T07:39:28.534Z,100.00
2022-08-20T07:41:34.579Z,100.00
2022-08-20T07:43:39.493Z,100.00
2022-08-20T07:45:43.057Z,100.00
2022-08-20T07:47:54.145Z,100.00
2022-08-20T07:49:57.152Z,100.00
2022-08-20T07:52:00.147Z,100.00
2022-08-20T07:54:03.134Z,100.00
2022-08-20T07:56:08.259Z,100.00
2022-08-20T07:58:12.737Z,100.00
2022-08-20T08:00:17.485Z,100.00
2022-08-20T08:02:20.763Z,100.00
2022-08-20T08:04:25.726Z,100.00
2022-08-20T08:06:31.407Z,100.00
2022-08-20T08:08:35.425Z,100.00
2022-08-20T08:10:38.655Z,100.00
2022-08-20T08:12:45.228Z,100.00
2022-08-20T08:14:49.384Z,100.00
2022-08-20T08:16:54.242Z,100.00
2022-08-20T08:18:58.434Z,100.00
2022-08-20T08:21:02.813Z,100.00
2022-08-20T08:23:05.931Z,100.00
2022-08-20T08:25:10.062Z,100.00
2022-08-20T08:27:13.520Z,100.00
2022-08-20T08:29:17.025Z,100.00
2022-08-20T08:31:20.126Z,100.00
2022-08-20T08:33:32.405Z,100.00
2022-08-20T08:35:35.570Z,100.00
2022-08-20T08:37:39.998Z,100.00
2022-08-20T08:39:43.170Z,100.00
2022-08-20T08:41:49.413Z,100.00
2022-08-20T08:43:54.081Z,100.00
2022-08-20T08:46:01.370Z,100.00
2022-08-20T08:48:05.514Z,100.00
2022-08-20T08:50:49.929Z,100.00
2022-08-20T08:52:52.058Z,100.00
2022-08-20T08:54:57.086Z,99.85
2022-08-20T08:57:01.076Z,98.66
2022-08-20T08:59:06.035Z,97.27
2022-08-20T09:01:53.295Z,95.81
2022-08-20T09:03:39.878Z,96.95
2022-08-20T09:05:47.960Z,97.65
2022-08-20T09:07:53.282Z,97.05
2022-08-20T09:09:57.499Z,97.68
2022-08-20T09:12:06.517Z,95.27
2022-08-20T09:14:09.499Z,95.51
2022-08-20T09:16:13.055Z,96.10
2022-08-20T09:18:16.000Z,95.48
2022-08-20T09:20:19.490Z,92.50
2022-08-20T09:22:26.595Z,93.49
2022-08-20T09:24:31.041Z,93.63
2022-08-20T09:26:38.579Z,92.34
2022-08-20T09:28:42.186Z,93.17
2022-08-20T09:30:45.587Z,93.27
2022-08-20T09:32:49.547Z,94.52
2022-08-20T09:34:56.235Z,94.04
2022-08-20T09:36:59.311Z,94.32
2022-08-20T09:39:03.113Z,93.24
2022-08-20T09:41:07.944Z,93.21
2022-08-20T09:43:10.969Z,95.57
2022-08-20T09:45:14.704Z,93.99
2022-08-20T09:47:18.302Z,93.91
2022-08-20T09:49:21.281Z,94.37
2022-08-20T09:51:24.418Z,93.35
2022-08-20T09:53:27.423Z,94.14
2022-08-20T09:55:34.994Z,92.02
2022-08-20T09:57:39.456Z,89.67
2022-08-20T09:59:42.569Z,88.77
2022-08-20T10:01:45.597Z,87.31
2022-08-20T10:03:49.864Z,91.25
2022-08-20T10:05:52.916Z,85.01
2022-08-20T10:07:56.179Z,86.44
2022-08-20T10:09:59.312Z,85.54
2022-08-20T10:12:02.347Z,86.06
2022-08-20T10:14:07.351Z,84.43
2022-08-20T10:16:10.495Z,84.67
2022-08-20T10:18:13.556Z,84.13
2022-08-20T10:20:18.318Z,82.95
2022-08-20T10:22:21.334Z,82.02
2022-08-20T10:24:24.711Z,82.34
2022-08-20T10:26:27.844Z,81.24
2022-08-20T10:28:30.916Z,81.52
2022-08-20T10:30:35.443Z,80.86
2022-08-20T10:32:38.458Z,77.73
2022-08-20T10:34:41.687Z,80.29
2022-08-20T10:36:44.765Z,77.07
2022-08-20T10:38:49.005Z,79.32
2022-08-20T10:40:52.321Z,79.19
2022-08-20T10:42:55.802Z,79.57
2022-08-20T10:44:58.857Z,76.54
2022-08-20T10:47:16.974Z,78.00
2022-08-20T10:49:20.069Z,78.40
2022-08-20T10:51:32.737Z,78.80
2022-08-20T10:53:36.166Z,80.07
2022-08-20T10:55:39.221Z,80.56
2022-08-20T10:57:43.628Z,80.61
2022-08-20T10:59:48.751Z,81.05
2022-08-20T11:01:51.835Z,79.87
2022-08-20T11:03:56.199Z,80.64
2022-08-20T11:05:59.298Z,80.62
2022-08-20T11:08:04.025Z,79.54
2022-08-20T11:10:13.600Z,78.81
2022-08-20T11:12:17.855Z,79.01
2022-08-20T11:14:20.830Z,80.55
2022-08-20T11:16:23.962Z,79.89
2022-08-20T11:18:26.990Z,78.40
2022-08-20T11:20:32.061Z,78.98
2022-08-20T11:22:35.120Z,79.14
2022-08-20T11:24:38.681Z,78.72
2022-08-20T11:26:41.784Z,78.70
2022-08-20T11:28:44.883Z,77.91
2022-08-20T11:30:50.027Z,78.31
2022-08-20T11:32:53.410Z,77.83
2022-08-20T11:34:56.452Z,79.27
2022-08-20T11:37:00.860Z,77.43
2022-08-20T11:39:04.073Z,76.91
2022-08-20T11:41:07.244Z,76.82
2022-08-20T11:43:14.777Z,77.13
2022-08-20T11:45:19.382Z,78.09
2022-08-20T11:47:24.764Z,77.38
2022-08-20T11:49:27.761Z,77.95
2022-08-20T11:51:30.802Z,78.56
2022-08-20T11:53:41.951Z,78.46
2022-08-20T11:55:45.100Z,78.83
2022-08-20T11:57:49.947Z,79.97
2022-08-20T11:59:54.240Z,80.30
2022-08-20T12:02:03.176Z,80.53
2022-08-20T12:04:06.695Z,81.09
2022-08-20T12:06:09.751Z,80.26
2022-08-20T12:08:26.451Z,80.77
2022-08-20T12:10:32.816Z,80.11
2022-08-20T12:12:35.773Z,79.18
2022-08-20T12:14:38.847Z,79.88
2022-08-20T12:16:41.873Z,80.13
2022-08-20T12:18:45.248Z,80.75
2022-08-20T12:20:48.263Z,80.33
2022-08-20T12:22:55.157Z,79.73
2022-08-20T12:24:58.597Z,80.22
2022-08-20T12:27:12.092Z,80.00
2022-08-20T12:29:15.131Z,79.20
2022-08-20T12:31:18.248Z,79.59
2022-08-20T12:33:21.243Z,79.21
2022-08-20T12:35:24.580Z,79.74
2022-08-20T12:37:29.968Z,79.70
2022-08-20T12:39:34.586Z,79.22
2022-08-20T12:41:37.708Z,78.74
2022-08-20T12:43:42.130Z,78.48
2022-08-20T12:45:45.202Z,78.38
2022-08-20T12:47:49.725Z,77.71
2022-08-20T12:49:55.370Z,77.73
2022-08-20T12:51:58.757Z,78.32
2022-08-20T12:54:01.733Z,78.04
2022-08-20T12:56:05.501Z,78.60
2022-08-20T12:58:10.356Z,77.89
2022-08-20T13:00:19.227Z,78.64
2022-08-20T13:02:22.487Z,78.99
2022-08-20T13:04:26.060Z,78.80
2022-08-20T13:06:29.064Z,77.85
2022-08-20T13:08:32.139Z,78.07
2022-08-20T13:10:37.122Z,77.34
2022-08-20T13:12:40.213Z,77.17
2022-08-20T13:14:43.673Z,77.63
2022-08-20T13:16:48.060Z,77.20
2022-08-20T13:18:56.339Z,76.15
2022-08-20T13:20:59.391Z,76.37
2022-08-20T13:23:02.695Z,76.20
2022-08-20T13:25:06.498Z,76.70
2022-08-20T13:27:11.286Z,76.82
2022-08-20T13:29:15.264Z,76.21
2022-08-20T13:31:18.290Z,76.32
2022-08-20T13:33:24.365Z,76.00
2022-08-20T13:35:27.673Z,77.06
2022-08-20T13:37:31.328Z,78.18
2022-08-20T13:39:34.607Z,78.57
2022-08-20T13:41:37.708Z,79.45
2022-08-20T13:43:40.695Z,79.38
2022-08-20T13:45:43.751Z,79.38
2022-08-20T13:47:47.167Z,80.74
2022-08-20T13:49:56.717Z,82.63
2022-08-20T13:51:59.825Z,84.70
2022-08-20T13:54:04.713Z,84.61
2022-08-20T13:56:08.458Z,84.64
2022-08-20T13:58:11.492Z,85.71
2022-08-20T14:00:18.215Z,86.13
2022-08-20T14:02:21.587Z,87.25
2022-08-20T14:04:24.704Z,86.61
2022-08-20T14:06:29.065Z,86.14
2022-08-20T14:08:32.118Z,85.04
2022-08-20T14:10:35.220Z,86.65
2022-08-20T14:12:38.312Z,85.43
2022-08-20T14:14:41.609Z,86.52
2022-08-20T14:16:44.631Z,86.56
2022-08-20T14:18:51.054Z,86.81
2022-08-20T14:20:55.811Z,86.41
2022-08-20T14:23:01.202Z,87.38
2022-08-20T14:25:06.219Z,87.58
2022-08-20T14:27:09.979Z,87.33
2022-08-20T14:29:13.070Z,87.45
2022-08-20T14:31:16.096Z,87.85
2022-08-20T14:33:19.084Z,87.97
2022-08-20T14:35:22.911Z,86.40
2022-08-20T14:37:27.495Z,86.23
2022-08-20T14:39:31.875Z,85.30
2022-08-20T14:41:35.126Z,85.01
2022-08-20T14:43:38.148Z,84.96
2022-08-20T14:45:42.361Z,85.80
2022-08-20T14:47:48.926Z,84.57
2022-08-20T14:49:59.570Z,83.04
2022-08-20T14:52:02.544Z,82.78
2022-08-20T14:54:05.898Z,82.54
2022-08-20T14:56:11.082Z,81.42
2022-08-20T14:58:15.023Z,82.14
2022-08-20T15:00:20.932Z,80.89
2022-08-20T15:02:24.098Z,81.04
2022-08-20T15:04:27.324Z,80.83
2022-08-20T15:06:31.141Z,81.37
2022-08-20T15:08:34.136Z,80.40
2022-08-20T15:10:37.491Z,79.65
2022-08-20T15:12:43.100Z,79.47
2022-08-20T15:14:48.178Z,79.59
2022-08-20T15:16:52.144Z,80.10
2022-08-20T15:18:56.522Z,79.66
2022-08-20T15:21:02.838Z,79.17
2022-08-20T15:23:06.468Z,79.21
2022-08-20T15:25:11.332Z,78.15
2022-08-20T15:27:22.318Z,79.24
2022-08-20T15:29:27.100Z,78.50
2022-08-20T15:31:30.145Z,78.68
2022-08-20T15:33:33.191Z,78.07
2022-08-20T15:35:36.774Z,78.90
2022-08-20T15:37:41.878Z,77.65
2022-08-20T15:39:45.673Z,78.23
2022-08-20T15:41:49.065Z,77.50
2022-08-20T15:43:52.012Z,77.55
2022-08-20T15:45:57.874Z,78.19
2022-08-20T15:48:03.618Z,77.99
2022-08-20T15:50:14.144Z,77.95
2022-08-20T15:52:18.089Z,77.44
2022-08-20T15:54:24.357Z,77.69
2022-08-20T15:56:42.031Z,78.24
2022-08-20T15:58:52.605Z,78.09
2022-08-20T16:01:15.347Z,79.31
2022-08-20T16:03:40.722Z,78.26
2022-08-20T16:05:47.652Z,77.24
2022-08-20T16:08:00.855Z,77.50
2022-08-20T16:10:15.672Z,77.80
2022-08-20T16:12:21.478Z,77.88
2022-08-20T16:14:26.984Z,77.77
2022-08-20T16:16:37.560Z,77.44
2022-08-20T16:18:41.307Z,78.45
2022-08-20T16:20:47.846Z,78.30
2022-08-20T16:22:53.197Z,78.10
2022-08-20T16:24:57.116Z,78.16
2022-08-20T16:27:10.421Z,78.27
2022-08-20T16:29:19.846Z,77.86
2022-08-20T16:31:25.883Z,77.92
2022-08-20T16:33:33.357Z,78.16
2022-08-20T16:35:39.375Z,78.16
2022-08-20T16:37:46.598Z,78.17
2022-08-20T16:39:56.275Z,78.28
2022-08-20T16:41:59.629Z,78.38
2022-08-20T16:44:13.174Z,78.24
2022-08-20T16:46:18.912Z,78.11
2022-08-20T16:48:22.174Z,78.86
2022-08-20T16:50:35.464Z,78.67
2022-08-20T16:52:40.075Z,79.13
2022-08-20T16:54:44.529Z,79.23
2022-08-20T16:56:50.664Z,79.02
2022-08-20T16:58:56.537Z,79.04
2022-08-20T17:01:09.350Z,80.58
2022-08-20T17:03:38.585Z,79.17
2022-08-20T17:05:47.972Z,77.09
2022-08-20T17:07:54.360Z,76.83
2022-08-20T17:10:11.641Z,77.27
2022-08-20T17:12:19.359Z,77.90
2022-08-20T17:14:22.364Z,76.90
2022-08-20T17:16:25.360Z,76.43
2022-08-20T17:18:31.021Z,76.52
2022-08-20T17:20:45.883Z,76.92
2022-08-20T17:22:52.175Z,77.03
2022-08-20T17:24:55.893Z,77.76
2022-08-20T17:27:01.581Z,78.70
2022-08-20T17:29:13.421Z,79.57
2022-08-20T17:31:21.212Z,79.77
2022-08-20T17:33:36.590Z,80.17
2022-08-20T17:35:42.996Z,80.25
2022-08-20T17:37:51.495Z,81.61
2022-08-20T17:40:08.021Z,81.77
2022-08-20T17:42:16.229Z,81.54
2022-08-20T17:44:22.568Z,81.55
2022-08-20T17:46:27.830Z,82.24
2022-08-20T17:48:34.269Z,81.78
2022-08-20T17:50:41.108Z,82.80
2022-08-20T17:52:49.273Z,82.92
2022-08-20T17:54:52.366Z,83.33
2022-08-20T17:56:59.308Z,82.64
2022-08-20T17:59:10.245Z,82.58
2022-08-20T18:01:15.677Z,83.52
2022-08-20T18:03:22.858Z,82.91
2022-08-20T18:05:26.165Z,82.88
2022-08-20T18:07:35.255Z,83.70
2022-08-20T18:09:44.672Z,84.00
2022-08-20T18:11:54.052Z,83.78
2022-08-20T18:14:10.659Z,83.79
2022-08-20T18:16:18.111Z,84.75
2022-08-20T18:18:27.471Z,85.10
2022-08-20T18:20:57.570Z,84.46
2022-08-20T18:23:03.565Z,84.64
2022-08-20T18:25:18.668Z,85.19
2022-08-20T18:27:25.216Z,85.79
2022-08-20T18:29:31.424Z,86.61
2022-08-20T18:31:41.199Z,85.83
2022-08-20T18:33:45.525Z,86.13
2022-08-20T18:35:49.835Z,87.45
2022-08-20T18:37:53.352Z,86.87
2022-08-20T18:40:16.009Z,87.06
2022-08-20T18:42:30.373Z,87.86
2022-08-20T18:44:44.315Z,88.29
2022-08-20T18:46:53.697Z,88.35
2022-08-20T18:48:59.420Z,88.23
2022-08-20T18:51:04.722Z,87.65
2022-08-20T18:53:11.905Z,88.63
2022-08-20T18:55:30.338Z,88.85
2022-08-20T18:57:41.359Z,88.66
2022-08-20T18:59:57.151Z,88.82
2022-08-20T19:02:00.843Z,88.96
2022-08-20T19:04:16.316Z,89.32
2022-08-20T19:06:30.180Z,89.27
2022-08-20T19:08:40.511Z,89.98
2022-08-20T19:10:49.384Z,89.26
2022-08-20T19:13:25.907Z,89.70
2022-08-20T19:15:29.319Z,89.70
2022-08-20T19:17:55.318Z,90.27
2022-08-20T19:20:02.485Z,90.11
2022-08-20T19:22:05.889Z,90.70
2022-08-20T19:24:09.739Z,90.98
2022-08-20T19:26:25.957Z,90.69
2022-08-20T19:28:31.403Z,91.27
2022-08-20T19:30:37.294Z,90.54
2022-08-20T19:32:46.317Z,91.21
2022-08-20T19:34:53.080Z,90.74
2022-08-20T19:36:59.519Z,91.09
2022-08-20T19:39:15.382Z,91.11
2022-08-20T19:41:26.750Z,91.96
2022-08-20T19:43:42.833Z,91.88
2022-08-20T19:45:47.769Z,92.54
2022-08-20T19:47:58.138Z,92.34
2022-08-20T19:50:15.361Z,91.95
2022-08-20T19:52:27.759Z,92.02
2022-08-20T19:54:31.276Z,91.85
2022-08-20T19:56:41.813Z,92.02
2022-08-20T19:58:45.535Z,92.64
2022-08-20T20:00:50.601Z,93.12
2022-08-20T20:02:53.929Z,93.24
2022-08-20T20:04:57.851Z,92.75
2022-08-20T20:07:01.286Z,93.02
2022-08-20T20:09:07.342Z,92.92
2022-08-20T20:11:17.839Z,93.32
2022-08-20T20:13:23.228Z,93.47
2022-08-20T20:15:27.944Z,94.11
2022-08-20T20:17:34.916Z,92.76
2022-08-20T20:19:46.098Z,93.37
2022-08-20T20:21:53.252Z,93.47
2022-08-20T20:23:59.287Z,93.88
2022-08-20T20:26:04.412Z,93.70
2022-08-20T20:28:11.462Z,95.02
2022-08-20T20:30:23.066Z,94.67
2022-08-20T20:32:26.352Z,93.97
2022-08-20T20:34:31.774Z,93.88
2022-08-20T20:36:38.917Z,94.23
2022-08-20T20:38:53.868Z,93.71
2022-08-20T20:40:59.021Z,94.09
2022-08-20T20:43:05.984Z,94.75
2022-08-20T20:45:20.517Z,94.86
2022-08-20T20:47:26.561Z,95.34
2022-08-20T20:49:32.472Z,94.14
2022-08-20T20:51:40.046Z,93.92
2022-08-20T20:53:53.083Z,94.25
2022-08-20T20:55:58.459Z,95.10
2022-08-20T20:58:02.737Z,94.96
2022-08-20T21:00:07.658Z,95.07
2022-08-20T21:02:12.215Z,95.87
2022-08-20T21:04:15.255Z,95.17
2022-08-20T21:06:18.787Z,95.94
2022-08-20T21:08:21.958Z,95.18
2022-08-20T21:10:27.412Z,95.41
2022-08-20T21:12:30.605Z,96.19
2022-08-20T21:14:33.720Z,96.17
2022-08-20T21:16:36.970Z,95.64
2022-08-20T21:18:41.469Z,95.27
2022-08-20T21:20:44.874Z,94.67
2022-08-20T21:22:47.950Z,93.52
2022-08-20T21:24:51.498Z,94.50
2022-08-20T21:26:55.302Z,95.90
2022-08-20T21:28:58.412Z,95.56
2022-08-20T21:31:02.002Z,94.84
2022-08-20T21:33:05.090Z,96.46
2022-08-20T21:35:11.273Z,96.32
2022-08-20T21:37:14.504Z,95.96
2022-08-20T21:39:17.831Z,95.24
2022-08-20T21:41:29.758Z,94.35
2022-08-20T21:43:33.382Z,96.01
2022-08-20T21:45:38.295Z,93.85
2022-08-20T21:47:41.846Z,94.26
2022-08-20T21:49:44.939Z,94.77
2022-08-20T21:51:50.104Z,94.97
2022-08-20T21:53:53.133Z,94.96
2022-08-20T21:55:56.315Z,96.52
2022-08-20T21:57:59.807Z,95.73
2022-08-20T22:00:06.291Z,95.19
2022-08-20T22:02:09.508Z,94.28
2022-08-20T22:04:12.944Z,95.33
2022-08-20T22:06:15.925Z,94.82
2022-08-20T22:08:21.267Z,95.69
2022-08-20T22:10:29.063Z,95.58
2022-08-20T22:12:32.147Z,94.75
2022-08-20T22:14:35.186Z,95.63
2022-08-20T22:16:38.335Z,94.95
2022-08-20T22:18:46.555Z,95.46
2022-08-20T22:20:49.660Z,94.95
2022-08-20T22:22:53.048Z,95.01
2022-08-20T22:24:57.596Z,95.29
2022-08-20T22:27:01.281Z,96.11
2022-08-20T22:29:04.814Z,95.36
2022-08-20T22:31:08.240Z,94.15
2022-08-20T22:33:15.238Z,94.42
2022-08-20T22:35:18.256Z,95.14
2022-08-20T22:37:21.380Z,95.61
2022-08-20T22:39:24.391Z,96.07
2022-08-20T22:41:29.271Z,94.57
2022-08-20T22:43:32.282Z,96.10
2022-08-20T22:45:36.123Z,94.92
2022-08-20T22:47:39.296Z,96.38
2022-08-20T22:49:44.282Z,95.08
2022-08-20T22:51:47.312Z,95.52
2022-08-20T22:53:50.423Z,94.49
2022-08-20T22:55:54.246Z,94.98
2022-08-20T22:57:59.668Z,95.60
2022-08-20T23:00:06.272Z,96.09
2022-08-20T23:02:12.884Z,95.06
2022-08-20T23:04:23.299Z,95.86
2022-08-20T23:06:26.912Z,95.59
2022-08-20T23:08:30.231Z,95.94
2022-08-20T23:10:38.029Z,94.87
2022-08-20T23:12:41.086Z,95.50
2022-08-20T23:14:45.619Z,95.71
2022-08-20T23:16:59.160Z,95.75
2022-08-20T23:19:02.553Z,94.79
2022-08-20T23:21:05.768Z,94.28
2022-08-20T23:23:08.972Z,94.77
2022-08-20T23:25:12.871Z,94.79
2022-08-20T23:27:18.737Z,94.94
2022-08-20T23:29:25.526Z,94.90
2022-08-20T23:31:30.449Z,95.39
2022-08-20T23:33:33.414Z,94.62
2022-08-20T23:35:38.108Z,95.04
2022-08-20T23:37:43.063Z,95.15
2022-08-20T23:39:46.514Z,95.33
2022-08-20T23:41:49.672Z,95.13
2022-08-20T23:43:52.729Z,95.68
2022-08-20T23:45:56.611Z,94.99
2022-08-20T23:48:01.139Z,94.75
2022-08-20T23:50:04.944Z,95.03
2022-08-20T23:52:08.085Z,94.29
2022-08-20T23:54:11.089Z,94.35
2022-08-20T23:56:14.385Z,94.99
2022-08-20T23:58:17.510Z,95.16
